sensor_id;sensor_type;location;lat;lon;timestamp;P1;durP1;ratioP1;P2;durP2;ratioP2
52564;SDS011;38460;53.106;7.004;2022-12-05T00:00:14;28.55;;;16.63;;
52564;SDS011;38460;53.106;7.004;2022-12-05T00:02:40;31.40;;;17.20;;
52564;SDS011;38460;53.106;7.004;2022-12-05T00:05:06;29.45;;;15.63;;
52564;SDS011;38460;53.106;7.004;2022-12-05T00:07:33;29.30;;;15.80;;
52564;SDS011;38460;53.106;7.004;2022-12-05T00:09:59;27.35;;;16.33;;
52564;SDS011;38460;53.106;7.004;2022-12-05T00:12:25;28.42;;;15.52;;
52564;SDS011;38460;53.106;7.004;2022-12-05T00:14:50;29.42;;;16.00;;
52564;SDS011;38460;53.106;7.004;2022-12-05T00:17:16;31.23;;;16.00;;
52564;SDS011;38460;53.106;7.004;2022-12-05T00:19:42;28.83;;;16.52;;
52564;SDS011;38460;53.106;7.004;2022-12-05T00:22:08;31.90;;;17.83;;
52564;SDS011;38460;53.106;7.004;2022-12-05T00:24:34;30.85;;;16.90;;
52564;SDS011;38460;53.106;7.004;2022-12-05T00:26:59;28.45;;;17.83;;
52564;SDS011;38460;53.106;7.004;2022-12-05T00:29:25;27.30;;;16.27;;
52564;SDS011;38460;53.106;7.004;2022-12-05T00:31:51;31.05;;;17.10;;
52564;SDS011;38460;53.106;7.004;2022-12-05T00:34:17;30.65;;;18.35;;
52564;SDS011;38460;53.106;7.004;2022-12-05T00:36:42;29.90;;;17.92;;
52564;SDS011;38460;53.106;7.004;2022-12-05T00:39:09;38.10;;;19.40;;
52564;SDS011;38460;53.106;7.004;2022-12-05T00:41:38;34.15;;;18.77;;
52564;SDS011;38460;53.106;7.004;2022-12-05T00:44:04;32.13;;;18.05;;
52564;SDS011;38460;53.106;7.004;2022-12-05T00:46:30;33.17;;;17.85;;
52564;SDS011;38460;53.106;7.004;2022-12-05T00:48:58;33.22;;;17.40;;
52564;SDS011;38460;53.106;7.004;2022-12-05T00:51:26;32.67;;;17.88;;
52564;SDS011;38460;53.106;7.004;2022-12-05T00:53:56;33.00;;;19.38;;
52564;SDS011;38460;53.106;7.004;2022-12-05T00:56:23;30.02;;;17.77;;
52564;SDS011;38460;53.106;7.004;2022-12-05T00:58:51;32.65;;;18.50;;
52564;SDS011;38460;53.106;7.004;2022-12-05T01:01:19;37.35;;;19.25;;
52564;SDS011;38460;53.106;7.004;2022-12-05T01:03:47;31.58;;;18.15;;
52564;SDS011;38460;53.106;7.004;2022-12-05T01:06:15;33.08;;;18.23;;
52564;SDS011;38460;53.106;7.004;2022-12-05T01:08:41;31.45;;;19.25;;
52564;SDS011;38460;53.106;7.004;2022-12-05T01:11:07;34.90;;;18.85;;
52564;SDS011;38460;53.106;7.004;2022-12-05T01:13:34;35.40;;;20.40;;
52564;SDS011;38460;53.106;7.004;2022-12-05T01:16:00;33.92;;;19.65;;
52564;SDS011;38460;53.106;7.004;2022-12-05T01:18:26;31.50;;;18.55;;
52564;SDS011;38460;53.106;7.004;2022-12-05T01:20:52;39.90;;;19.90;;
52564;SDS011;38460;53.106;7.004;2022-12-05T01:23:19;36.08;;;19.80;;
52564;SDS011;38460;53.106;7.004;2022-12-05T01:25:45;34.30;;;19.55;;
52564;SDS011;38460;53.106;7.004;2022-12-05T01:28:13;36.90;;;19.25;;
52564;SDS011;38460;53.106;7.004;2022-12-05T01:30:41;37.50;;;21.38;;
52564;SDS011;38460;53.106;7.004;2022-12-05T01:33:11;36.90;;;20.40;;
52564;SDS011;38460;53.106;7.004;2022-12-05T01:35:37;36.05;;;20.50;;
52564;SDS011;38460;53.106;7.004;2022-12-05T01:38:04;37.17;;;19.80;;
52564;SDS011;38460;53.106;7.004;2022-12-05T01:40:31;38.55;;;22.00;;
52564;SDS011;38460;53.106;7.004;2022-12-05T01:42:58;38.33;;;20.70;;
52564;SDS011;38460;53.106;7.004;2022-12-05T01:45:35;35.05;;;19.85;;
52564;SDS011;38460;53.106;7.004;2022-12-05T01:48:04;34.85;;;20.40;;
52564;SDS011;38460;53.106;7.004;2022-12-05T01:50:34;36.20;;;20.33;;
52564;SDS011;38460;53.106;7.004;2022-12-05T01:53:00;39.40;;;20.10;;
52564;SDS011;38460;53.106;7.004;2022-12-05T01:55:28;36.67;;;19.67;;
52564;SDS011;38460;53.106;7.004;2022-12-05T01:57:54;37.30;;;20.20;;
52564;SDS011;38460;53.106;7.004;2022-12-05T02:00:21;39.17;;;20.20;;
52564;SDS011;38460;53.106;7.004;2022-12-05T02:02:55;33.95;;;19.45;;
52564;SDS011;38460;53.106;7.004;2022-12-05T02:07:51;32.90;;;18.17;;
52564;SDS011;38460;53.106;7.004;2022-12-05T02:10:17;31.80;;;17.52;;
52564;SDS011;38460;53.106;7.004;2022-12-05T02:12:43;32.78;;;17.92;;
52564;SDS011;38460;53.106;7.004;2022-12-05T02:17:59;30.33;;;18.17;;
52564;SDS011;38460;53.106;7.004;2022-12-05T02:26:51;31.40;;;17.75;;
52564;SDS011;38460;53.106;7.004;2022-12-05T02:32:33;36.28;;;19.23;;
52564;SDS011;38460;53.106;7.004;2022-12-05T02:40:43;28.50;;;16.90;;
52564;SDS011;38460;53.106;7.004;2022-12-05T02:43:19;32.00;;;18.40;;
52564;SDS011;38460;53.106;7.004;2022-12-05T02:45:54;34.55;;;17.40;;
52564;SDS011;38460;53.106;7.004;2022-12-05T02:48:25;35.38;;;20.05;;
52564;SDS011;38460;53.106;7.004;2022-12-05T02:50:53;33.97;;;18.88;;
52564;SDS011;38460;53.106;7.004;2022-12-05T02:53:21;36.42;;;18.30;;
52564;SDS011;38460;53.106;7.004;2022-12-05T02:55:49;31.33;;;16.77;;
52564;SDS011;38460;53.106;7.004;2022-12-05T02:58:22;29.98;;;17.60;;
52564;SDS011;38460;53.106;7.004;2022-12-05T03:00:52;31.17;;;16.55;;
52564;SDS011;38460;53.106;7.004;2022-12-05T03:03:20;32.17;;;17.95;;
52564;SDS011;38460;53.106;7.004;2022-12-05T03:08:20;29.27;;;17.45;;
52564;SDS011;38460;53.106;7.004;2022-12-05T03:10:49;24.58;;;15.57;;
52564;SDS011;38460;53.106;7.004;2022-12-05T03:13:18;26.55;;;15.88;;
52564;SDS011;38460;53.106;7.004;2022-12-05T03:15:50;20.25;;;14.00;;
52564;SDS011;38460;53.106;7.004;2022-12-05T03:18:23;30.55;;;15.85;;
52564;SDS011;38460;53.106;7.004;2022-12-05T03:21:03;24.67;;;15.63;;
52564;SDS011;38460;53.106;7.004;2022-12-05T03:23:44;27.52;;;14.90;;
52564;SDS011;38460;53.106;7.004;2022-12-05T03:37:27;20.75;;;13.57;;
52564;SDS011;38460;53.106;7.004;2022-12-05T03:40:10;23.55;;;14.20;;
52564;SDS011;38460;53.106;7.004;2022-12-05T03:51:09;20.15;;;12.73;;
52564;SDS011;38460;53.106;7.004;2022-12-05T03:53:40;18.20;;;11.57;;
52564;SDS011;38460;53.106;7.004;2022-12-05T03:56:15;17.38;;;11.73;;
52564;SDS011;38460;53.106;7.004;2022-12-05T03:58:53;17.77;;;11.43;;
52564;SDS011;38460;53.106;7.004;2022-12-05T04:01:32;17.20;;;11.00;;
52564;SDS011;38460;53.106;7.004;2022-12-05T04:04:01;16.45;;;10.65;;
52564;SDS011;38460;53.106;7.004;2022-12-05T04:06:35;15.88;;;10.30;;
52564;SDS011;38460;53.106;7.004;2022-12-05T04:09:04;16.15;;;9.98;;
52564;SDS011;38460;53.106;7.004;2022-12-05T04:11:34;15.73;;;10.52;;
52564;SDS011;38460;53.106;7.004;2022-12-05T04:14:05;16.15;;;10.27;;
52564;SDS011;38460;53.106;7.004;2022-12-05T04:16:37;16.45;;;10.05;;
52564;SDS011;38460;53.106;7.004;2022-12-05T04:22:35;16.88;;;10.27;;
52564;SDS011;38460;53.106;7.004;2022-12-05T04:25:03;13.55;;;9.57;;
52564;SDS011;38460;53.106;7.004;2022-12-05T04:27:55;13.48;;;8.90;;
52564;SDS011;38460;53.106;7.004;2022-12-05T04:30:29;16.10;;;9.32;;
52564;SDS011;38460;53.106;7.004;2022-12-05T04:33:01;10.05;;;7.88;;
52564;SDS011;38460;53.106;7.004;2022-12-05T04:38:19;16.27;;;9.75;;
52564;SDS011;38460;53.106;7.004;2022-12-05T04:43:25;13.05;;;8.82;;
52564;SDS011;38460;53.106;7.004;2022-12-05T04:45:55;14.23;;;8.60;;
52564;SDS011;38460;53.106;7.004;2022-12-05T04:48:22;12.00;;;7.95;;
52564;SDS011;38460;53.106;7.004;2022-12-05T04:50:50;14.23;;;8.15;;
52564;SDS011;38460;53.106;7.004;2022-12-05T04:53:18;12.73;;;8.57;;
52564;SDS011;38460;53.106;7.004;2022-12-05T04:55:47;13.20;;;7.68;;
52564;SDS011;38460;53.106;7.004;2022-12-05T04:58:16;13.50;;;8.75;;
52564;SDS011;38460;53.106;7.004;2022-12-05T05:00:50;11.60;;;8.73;;
52564;SDS011;38460;53.106;7.004;2022-12-05T05:03:43;11.03;;;8.40;;
52564;SDS011;38460;53.106;7.004;2022-12-05T05:06:14;10.85;;;8.20;;
52564;SDS011;38460;53.106;7.004;2022-12-05T05:08:48;10.52;;;7.82;;
52564;SDS011;38460;53.106;7.004;2022-12-05T05:11:17;12.55;;;7.78;;
52564;SDS011;38460;53.106;7.004;2022-12-05T05:13:51;11.85;;;8.07;;
52564;SDS011;38460;53.106;7.004;2022-12-05T05:16:21;10.10;;;7.25;;
52564;SDS011;38460;53.106;7.004;2022-12-05T05:18:50;11.25;;;7.82;;
52564;SDS011;38460;53.106;7.004;2022-12-05T05:21:17;11.85;;;7.30;;
52564;SDS011;38460;53.106;7.004;2022-12-05T05:23:51;13.27;;;8.02;;
52564;SDS011;38460;53.106;7.004;2022-12-05T05:26:17;12.68;;;7.60;;
52564;SDS011;38460;53.106;7.004;2022-12-05T05:28:43;12.35;;;7.15;;
52564;SDS011;38460;53.106;7.004;2022-12-05T05:31:09;11.50;;;8.23;;
52564;SDS011;38460;53.106;7.004;2022-12-05T05:33:36;15.68;;;8.82;;
52564;SDS011;38460;53.106;7.004;2022-12-05T05:36:05;12.30;;;8.48;;
52564;SDS011;38460;53.106;7.004;2022-12-05T05:38:36;11.82;;;7.43;;
52564;SDS011;38460;53.106;7.004;2022-12-05T05:41:03;13.48;;;7.80;;
52564;SDS011;38460;53.106;7.004;2022-12-05T05:43:29;11.00;;;7.45;;
52564;SDS011;38460;53.106;7.004;2022-12-05T05:45:55;11.70;;;8.18;;
52564;SDS011;38460;53.106;7.004;2022-12-05T05:48:21;13.23;;;8.27;;
52564;SDS011;38460;53.106;7.004;2022-12-05T05:50:47;13.55;;;7.95;;
52564;SDS011;38460;53.106;7.004;2022-12-05T05:53:12;13.38;;;7.97;;
52564;SDS011;38460;53.106;7.004;2022-12-05T05:55:41;11.98;;;7.50;;
52564;SDS011;38460;53.106;7.004;2022-12-05T05:58:07;15.65;;;9.68;;
52564;SDS011;38460;53.106;7.004;2022-12-05T06:00:33;15.13;;;9.40;;
52564;SDS011;38460;53.106;7.004;2022-12-05T06:02:59;16.10;;;9.35;;
52564;SDS011;38460;53.106;7.004;2022-12-05T06:05:25;15.15;;;9.88;;
52564;SDS011;38460;53.106;7.004;2022-12-05T06:07:51;15.43;;;9.25;;
52564;SDS011;38460;53.106;7.004;2022-12-05T06:10:17;16.15;;;8.65;;
52564;SDS011;38460;53.106;7.004;2022-12-05T06:12:43;15.40;;;9.15;;
52564;SDS011;38460;53.106;7.004;2022-12-05T06:15:09;13.00;;;8.43;;
52564;SDS011;38460;53.106;7.004;2022-12-05T06:17:35;15.43;;;8.82;;
52564;SDS011;38460;53.106;7.004;2022-12-05T06:20:01;14.75;;;8.68;;
52564;SDS011;38460;53.106;7.004;2022-12-05T06:22:28;13.02;;;8.60;;
52564;SDS011;38460;53.106;7.004;2022-12-05T06:24:54;12.55;;;8.15;;
52564;SDS011;38460;53.106;7.004;2022-12-05T06:27:20;16.17;;;8.73;;
52564;SDS011;38460;53.106;7.004;2022-12-05T06:29:45;14.35;;;8.88;;
52564;SDS011;38460;53.106;7.004;2022-12-05T06:32:11;14.05;;;8.98;;
52564;SDS011;38460;53.106;7.004;2022-12-05T06:34:37;15.77;;;8.68;;
52564;SDS011;38460;53.106;7.004;2022-12-05T06:37:03;14.18;;;8.45;;
52564;SDS011;38460;53.106;7.004;2022-12-05T06:39:28;13.90;;;9.02;;
52564;SDS011;38460;53.106;7.004;2022-12-05T06:41:54;12.82;;;8.13;;
52564;SDS011;38460;53.106;7.004;2022-12-05T06:44:20;14.50;;;8.32;;
52564;SDS011;38460;53.106;7.004;2022-12-05T06:46:46;12.00;;;8.18;;
52564;SDS011;38460;53.106;7.004;2022-12-05T06:49:13;15.07;;;8.63;;
52564;SDS011;38460;53.106;7.004;2022-12-05T06:51:39;15.15;;;8.30;;
52564;SDS011;38460;53.106;7.004;2022-12-05T06:54:04;13.30;;;8.60;;
52564;SDS011;38460;53.106;7.004;2022-12-05T06:56:30;15.23;;;8.00;;
52564;SDS011;38460;53.106;7.004;2022-12-05T06:58:56;12.82;;;8.45;;
52564;SDS011;38460;53.106;7.004;2022-12-05T07:01:22;15.73;;;8.63;;
52564;SDS011;38460;53.106;7.004;2022-12-05T07:04:12;14.90;;;8.27;;
52564;SDS011;38460;53.106;7.004;2022-12-05T07:06:40;11.80;;;8.27;;
52564;SDS011;38460;53.106;7.004;2022-12-05T07:09:08;13.55;;;8.07;;
52564;SDS011;38460;53.106;7.004;2022-12-05T07:11:34;12.48;;;8.02;;
52564;SDS011;38460;53.106;7.004;2022-12-05T07:14:01;12.95;;;7.90;;
52564;SDS011;38460;53.106;7.004;2022-12-05T07:16:27;13.70;;;8.70;;
52564;SDS011;38460;53.106;7.004;2022-12-05T07:18:53;14.88;;;9.23;;
52564;SDS011;38460;53.106;7.004;2022-12-05T07:21:19;14.45;;;9.48;;
52564;SDS011;38460;53.106;7.004;2022-12-05T07:23:47;14.35;;;8.98;;
52564;SDS011;38460;53.106;7.004;2022-12-05T07:26:15;16.27;;;10.00;;
52564;SDS011;38460;53.106;7.004;2022-12-05T07:28:43;17.25;;;8.95;;
52564;SDS011;38460;53.106;7.004;2022-12-05T07:31:11;18.20;;;9.52;;
52564;SDS011;38460;53.106;7.004;2022-12-05T07:33:38;17.70;;;10.05;;
52564;SDS011;38460;53.106;7.004;2022-12-05T07:36:09;18.80;;;10.32;;
52564;SDS011;38460;53.106;7.004;2022-12-05T07:38:36;16.95;;;10.02;;
52564;SDS011;38460;53.106;7.004;2022-12-05T07:41:05;18.27;;;10.63;;
52564;SDS011;38460;53.106;7.004;2022-12-05T07:43:32;20.75;;;10.88;;
52564;SDS011;38460;53.106;7.004;2022-12-05T07:46:02;16.52;;;9.10;;
52564;SDS011;38460;53.106;7.004;2022-12-05T07:48:30;15.88;;;9.32;;
52564;SDS011;38460;53.106;7.004;2022-12-05T07:50:59;20.02;;;10.35;;
52564;SDS011;38460;53.106;7.004;2022-12-05T07:53:26;17.27;;;9.25;;
52564;SDS011;38460;53.106;7.004;2022-12-05T07:55:53;17.67;;;9.23;;
52564;SDS011;38460;53.106;7.004;2022-12-05T07:58:18;15.95;;;8.75;;
52564;SDS011;38460;53.106;7.004;2022-12-05T08:00:44;16.23;;;8.95;;
52564;SDS011;38460;53.106;7.004;2022-12-05T08:03:10;17.75;;;9.63;;
52564;SDS011;38460;53.106;7.004;2022-12-05T08:05:36;18.98;;;9.20;;
52564;SDS011;38460;53.106;7.004;2022-12-05T08:08:02;14.85;;;8.10;;
52564;SDS011;38460;53.106;7.004;2022-12-05T08:10:28;14.95;;;8.95;;
52564;SDS011;38460;53.106;7.004;2022-12-05T08:12:53;15.90;;;8.68;;
52564;SDS011;38460;53.106;7.004;2022-12-05T08:15:19;13.75;;;8.77;;
52564;SDS011;38460;53.106;7.004;2022-12-05T08:17:45;16.55;;;8.75;;
52564;SDS011;38460;53.106;7.004;2022-12-05T08:20:10;13.45;;;8.52;;
52564;SDS011;38460;53.106;7.004;2022-12-05T08:22:37;13.00;;;7.72;;
52564;SDS011;38460;53.106;7.004;2022-12-05T08:25:02;13.85;;;8.18;;
52564;SDS011;38460;53.106;7.004;2022-12-05T08:27:28;13.40;;;7.15;;
52564;SDS011;38460;53.106;7.004;2022-12-05T08:29:54;15.38;;;8.15;;
52564;SDS011;38460;53.106;7.004;2022-12-05T08:32:20;15.93;;;7.97;;
52564;SDS011;38460;53.106;7.004;2022-12-05T08:34:45;13.02;;;8.65;;
52564;SDS011;38460;53.106;7.004;2022-12-05T08:37:11;13.15;;;7.70;;
52564;SDS011;38460;53.106;7.004;2022-12-05T08:39:37;13.77;;;8.23;;
52564;SDS011;38460;53.106;7.004;2022-12-05T08:42:03;12.50;;;7.97;;
52564;SDS011;38460;53.106;7.004;2022-12-05T08:44:28;12.73;;;8.52;;
52564;SDS011;38460;53.106;7.004;2022-12-05T08:46:54;15.27;;;8.60;;
52564;SDS011;38460;53.106;7.004;2022-12-05T08:49:20;12.52;;;7.82;;
52564;SDS011;38460;53.106;7.004;2022-12-05T08:51:46;14.65;;;9.02;;
52564;SDS011;38460;53.106;7.004;2022-12-05T08:54:12;12.57;;;7.10;;
52564;SDS011;38460;53.106;7.004;2022-12-05T08:56:38;16.13;;;8.77;;
52564;SDS011;38460;53.106;7.004;2022-12-05T08:59:03;14.73;;;7.88;;
52564;SDS011;38460;53.106;7.004;2022-12-05T09:01:30;16.73;;;8.05;;
52564;SDS011;38460;53.106;7.004;2022-12-05T09:03:57;13.52;;;8.05;;
52564;SDS011;38460;53.106;7.004;2022-12-05T09:06:28;12.38;;;7.93;;
52564;SDS011;38460;53.106;7.004;2022-12-05T09:08:56;14.50;;;8.40;;
52564;SDS011;38460;53.106;7.004;2022-12-05T09:11:28;13.37;;;8.10;;
52564;SDS011;38460;53.106;7.004;2022-12-05T09:13:56;14.90;;;8.75;;
52564;SDS011;38460;53.106;7.004;2022-12-05T09:16:24;12.60;;;7.72;;
52564;SDS011;38460;53.106;7.004;2022-12-05T09:18:55;15.90;;;8.68;;
52564;SDS011;38460;53.106;7.004;2022-12-05T09:21:22;15.00;;;9.18;;
52564;SDS011;38460;53.106;7.004;2022-12-05T09:23:50;13.90;;;8.02;;
52564;SDS011;38460;53.106;7.004;2022-12-05T09:26:18;12.00;;;7.78;;
52564;SDS011;38460;53.106;7.004;2022-12-05T09:28:45;14.90;;;8.30;;
52564;SDS011;38460;53.106;7.004;2022-12-05T09:31:13;15.43;;;8.77;;
52564;SDS011;38460;53.106;7.004;2022-12-05T09:33:41;13.63;;;7.50;;
52564;SDS011;38460;53.106;7.004;2022-12-05T09:36:12;12.77;;;8.07;;
52564;SDS011;38460;53.106;7.004;2022-12-05T09:38:43;16.92;;;8.85;;
52564;SDS011;38460;53.106;7.004;2022-12-05T09:44:37;16.17;;;8.40;;
52564;SDS011;38460;53.106;7.004;2022-12-05T09:50:11;15.82;;;8.55;;
52564;SDS011;38460;53.106;7.004;2022-12-05T09:55:44;17.67;;;8.70;;
52564;SDS011;38460;53.106;7.004;2022-12-05T09:58:18;12.80;;;7.88;;
52564;SDS011;38460;53.106;7.004;2022-12-05T10:01:32;13.10;;;7.88;;
52564;SDS011;38460;53.106;7.004;2022-12-05T10:04:15;45.80;;;12.68;;
52564;SDS011;38460;53.106;7.004;2022-12-05T10:15:34;13.30;;;8.25;;
52564;SDS011;38460;53.106;7.004;2022-12-05T10:18:27;13.00;;;7.70;;
52564;SDS011;38460;53.106;7.004;2022-12-05T10:21:11;17.65;;;6.68;;
52564;SDS011;38460;53.106;7.004;2022-12-05T10:26:27;17.73;;;8.15;;
52564;SDS011;38460;53.106;7.004;2022-12-05T10:31:47;17.65;;;7.55;;
52564;SDS011;38460;53.106;7.004;2022-12-05T10:34:24;20.75;;;8.55;;
52564;SDS011;38460;53.106;7.004;2022-12-05T10:39:26;12.95;;;6.72;;
52564;SDS011;38460;53.106;7.004;2022-12-05T10:41:52;13.95;;;7.63;;
52564;SDS011;38460;53.106;7.004;2022-12-05T10:44:19;12.98;;;7.05;;
52564;SDS011;38460;53.106;7.004;2022-12-05T10:46:45;13.88;;;7.35;;
52564;SDS011;38460;53.106;7.004;2022-12-05T10:49:11;15.93;;;7.40;;
52564;SDS011;38460;53.106;7.004;2022-12-05T10:51:37;15.40;;;8.38;;
52564;SDS011;38460;53.106;7.004;2022-12-05T10:54:08;12.05;;;7.93;;
52564;SDS011;38460;53.106;7.004;2022-12-05T10:56:44;18.92;;;7.80;;
52564;SDS011;38460;53.106;7.004;2022-12-05T10:59:18;13.07;;;7.20;;
52564;SDS011;38460;53.106;7.004;2022-12-05T11:01:50;21.38;;;7.90;;
52564;SDS011;38460;53.106;7.004;2022-12-05T11:04:22;18.27;;;7.95;;
52564;SDS011;38460;53.106;7.004;2022-12-05T11:06:55;12.32;;;7.20;;
52564;SDS011;38460;53.106;7.004;2022-12-05T11:09:25;14.60;;;8.43;;
52564;SDS011;38460;53.106;7.004;2022-12-05T11:12:03;13.13;;;7.78;;
52564;SDS011;38460;53.106;7.004;2022-12-05T11:14:30;16.85;;;8.23;;
52564;SDS011;38460;53.106;7.004;2022-12-05T11:16:59;13.30;;;7.93;;
52564;SDS011;38460;53.106;7.004;2022-12-05T11:19:27;14.13;;;7.97;;
52564;SDS011;38460;53.106;7.004;2022-12-05T11:21:53;12.07;;;7.85;;
52564;SDS011;38460;53.106;7.004;2022-12-05T11:24:20;11.52;;;7.07;;
52564;SDS011;38460;53.106;7.004;2022-12-05T11:26:50;12.82;;;7.47;;
52564;SDS011;38460;53.106;7.004;2022-12-05T11:29:35;12.63;;;7.03;;
52564;SDS011;38460;53.106;7.004;2022-12-05T11:32:02;11.27;;;6.53;;
52564;SDS011;38460;53.106;7.004;2022-12-05T11:34:45;12.45;;;6.75;;
52564;SDS011;38460;53.106;7.004;2022-12-05T11:40:37;11.40;;;7.07;;
52564;SDS011;38460;53.106;7.004;2022-12-05T11:44:13;12.05;;;6.35;;
52564;SDS011;38460;53.106;7.004;2022-12-05T11:49:43;10.85;;;6.47;;
52564;SDS011;38460;53.106;7.004;2022-12-05T11:55:39;10.60;;;5.60;;
52564;SDS011;38460;53.106;7.004;2022-12-05T12:37:04;8.95;;;5.90;;
52564;SDS011;38460;53.106;7.004;2022-12-05T12:39:48;11.23;;;6.53;;
52564;SDS011;38460;53.106;7.004;2022-12-05T12:42:24;9.38;;;5.72;;
52564;SDS011;38460;53.106;7.004;2022-12-05T12:47:41;11.30;;;6.10;;
52564;SDS011;38460;53.106;7.004;2022-12-05T12:50:30;10.38;;;5.57;;
52564;SDS011;38460;53.106;7.004;2022-12-05T12:53:02;13.75;;;5.95;;
52564;SDS011;38460;53.106;7.004;2022-12-05T13:03:59;8.95;;;4.80;;
52564;SDS011;38460;53.106;7.004;2022-12-05T13:06:37;8.98;;;5.60;;
52564;SDS011;38460;53.106;7.004;2022-12-05T13:09:17;7.90;;;5.07;;
52564;SDS011;38460;53.106;7.004;2022-12-05T13:11:53;9.77;;;5.70;;
52564;SDS011;38460;53.106;7.004;2022-12-05T13:14:22;10.13;;;5.63;;
52564;SDS011;38460;53.106;7.004;2022-12-05T13:16:50;13.48;;;5.03;;
52564;SDS011;38460;53.106;7.004;2022-12-05T13:21:56;12.98;;;6.47;;
52564;SDS011;38460;53.106;7.004;2022-12-05T13:24:24;9.23;;;4.90;;
52564;SDS011;38460;53.106;7.004;2022-12-05T13:26:52;9.02;;;4.80;;
52564;SDS011;38460;53.106;7.004;2022-12-05T13:29:24;7.75;;;4.35;;
52564;SDS011;38460;53.106;7.004;2022-12-05T13:31:59;6.88;;;4.35;;
52564;SDS011;38460;53.106;7.004;2022-12-05T13:34:43;8.57;;;4.32;;
52564;SDS011;38460;53.106;7.004;2022-12-05T13:37:16;7.40;;;4.90;;
52564;SDS011;38460;53.106;7.004;2022-12-05T13:40:03;9.30;;;4.63;;
52564;SDS011;38460;53.106;7.004;2022-12-05T13:42:57;7.30;;;4.28;;
52564;SDS011;38460;53.106;7.004;2022-12-05T13:45:24;7.10;;;4.35;;
52564;SDS011;38460;53.106;7.004;2022-12-05T13:47:57;8.10;;;4.80;;
52564;SDS011;38460;53.106;7.004;2022-12-05T13:50:42;6.53;;;4.28;;
52564;SDS011;38460;53.106;7.004;2022-12-05T13:55:54;7.50;;;4.15;;
52564;SDS011;38460;53.106;7.004;2022-12-05T14:04:01;7.32;;;4.28;;
52564;SDS011;38460;53.106;7.004;2022-12-05T14:09:03;10.35;;;4.72;;
52564;SDS011;38460;53.106;7.004;2022-12-05T14:11:29;9.70;;;4.43;;
52564;SDS011;38460;53.106;7.004;2022-12-05T14:13:55;10.02;;;5.35;;
52564;SDS011;38460;53.106;7.004;2022-12-05T14:18:57;10.07;;;5.20;;
52564;SDS011;38460;53.106;7.004;2022-12-05T14:24:17;9.98;;;5.05;;
52564;SDS011;38460;53.106;7.004;2022-12-05T14:32:27;10.38;;;5.50;;
52564;SDS011;38460;53.106;7.004;2022-12-05T14:35:01;10.43;;;5.95;;
52564;SDS011;38460;53.106;7.004;2022-12-05T14:37:36;8.13;;;4.70;;
52564;SDS011;38460;53.106;7.004;2022-12-05T14:40:03;12.27;;;5.45;;
52564;SDS011;38460;53.106;7.004;2022-12-05T14:42:50;11.90;;;5.55;;
52564;SDS011;38460;53.106;7.004;2022-12-05T14:55:40;9.27;;;4.50;;
52564;SDS011;38460;53.106;7.004;2022-12-05T14:58:17;8.77;;;4.85;;
52564;SDS011;38460;53.106;7.004;2022-12-05T15:00:54;10.38;;;5.07;;
52564;SDS011;38460;53.106;7.004;2022-12-05T15:03:28;8.52;;;4.63;;
52564;SDS011;38460;53.106;7.004;2022-12-05T15:06:02;9.55;;;5.22;;
52564;SDS011;38460;53.106;7.004;2022-12-05T15:08:33;9.02;;;4.90;;
52564;SDS011;38460;53.106;7.004;2022-12-05T15:11:14;10.90;;;5.10;;
52564;SDS011;38460;53.106;7.004;2022-12-05T15:13:55;10.60;;;6.00;;
52564;SDS011;38460;53.106;7.004;2022-12-05T15:16:25;11.15;;;5.40;;
52564;SDS011;38460;53.106;7.004;2022-12-05T15:19:01;10.75;;;5.57;;
52564;SDS011;38460;53.106;7.004;2022-12-05T15:21:32;10.00;;;5.60;;
52564;SDS011;38460;53.106;7.004;2022-12-05T15:24:16;11.65;;;5.50;;
52564;SDS011;38460;53.106;7.004;2022-12-05T15:26:48;10.52;;;5.65;;
52564;SDS011;38460;53.106;7.004;2022-12-05T15:29:22;9.63;;;4.72;;
52564;SDS011;38460;53.106;7.004;2022-12-05T15:31:54;8.68;;;5.30;;
52564;SDS011;38460;53.106;7.004;2022-12-05T15:34:26;10.68;;;4.85;;
52564;SDS011;38460;53.106;7.004;2022-12-05T15:37:19;8.13;;;5.65;;
52564;SDS011;38460;53.106;7.004;2022-12-05T15:39:50;10.88;;;4.70;;
52564;SDS011;38460;53.106;7.004;2022-12-05T15:42:22;7.10;;;4.57;;
52564;SDS011;38460;53.106;7.004;2022-12-05T15:50:29;8.98;;;5.00;;
52564;SDS011;38460;53.106;7.004;2022-12-05T15:56:06;11.20;;;5.50;;
52564;SDS011;38460;53.106;7.004;2022-12-05T15:58:45;11.40;;;5.80;;
52564;SDS011;38460;53.106;7.004;2022-12-05T16:01:16;8.48;;;5.45;;
52564;SDS011;38460;53.106;7.004;2022-12-05T16:08:48;11.20;;;5.85;;
52564;SDS011;38460;53.106;7.004;2022-12-05T16:11:15;8.23;;;5.30;;
52564;SDS011;38460;53.106;7.004;2022-12-05T16:13:53;10.98;;;6.03;;
52564;SDS011;38460;53.106;7.004;2022-12-05T16:16:27;10.10;;;4.90;;
52564;SDS011;38460;53.106;7.004;2022-12-05T16:18:56;10.63;;;5.32;;
52564;SDS011;38460;53.106;7.004;2022-12-05T16:21:43;10.37;;;5.50;;
52564;SDS011;38460;53.106;7.004;2022-12-05T16:24:14;10.52;;;5.25;;
52564;SDS011;38460;53.106;7.004;2022-12-05T16:29:35;9.63;;;5.50;;
52564;SDS011;38460;53.106;7.004;2022-12-05T16:32:02;10.23;;;5.25;;
52564;SDS011;38460;53.106;7.004;2022-12-05T16:34:31;11.90;;;5.40;;
52564;SDS011;38460;53.106;7.004;2022-12-05T16:36:58;11.00;;;6.00;;
52564;SDS011;38460;53.106;7.004;2022-12-05T16:39:25;7.85;;;5.28;;
52564;SDS011;38460;53.106;7.004;2022-12-05T16:41:52;10.75;;;5.40;;
52564;SDS011;38460;53.106;7.004;2022-12-05T16:47:02;11.15;;;5.45;;
52564;SDS011;38460;53.106;7.004;2022-12-05T16:49:34;10.00;;;5.10;;
52564;SDS011;38460;53.106;7.004;2022-12-05T16:54:32;11.55;;;5.93;;
52564;SDS011;38460;53.106;7.004;2022-12-05T16:56:59;10.20;;;5.47;;
52564;SDS011;38460;53.106;7.004;2022-12-05T16:59:32;12.25;;;6.60;;
52564;SDS011;38460;53.106;7.004;2022-12-05T17:02:04;12.43;;;6.30;;
52564;SDS011;38460;53.106;7.004;2022-12-05T17:04:35;12.73;;;5.80;;
52564;SDS011;38460;53.106;7.004;2022-12-05T17:07:01;11.48;;;5.80;;
52564;SDS011;38460;53.106;7.004;2022-12-05T17:09:27;11.85;;;5.85;;
52564;SDS011;38460;53.106;7.004;2022-12-05T17:11:54;10.95;;;5.70;;
52564;SDS011;38460;53.106;7.004;2022-12-05T17:14:25;10.45;;;5.55;;
52564;SDS011;38460;53.106;7.004;2022-12-05T17:16:51;9.73;;;6.55;;
52564;SDS011;38460;53.106;7.004;2022-12-05T17:19:17;7.70;;;5.18;;
52564;SDS011;38460;53.106;7.004;2022-12-05T17:21:43;11.75;;;6.65;;
52564;SDS011;38460;53.106;7.004;2022-12-05T17:24:11;10.80;;;6.20;;
52564;SDS011;38460;53.106;7.004;2022-12-05T17:26:41;10.88;;;5.75;;
52564;SDS011;38460;53.106;7.004;2022-12-05T17:29:08;11.88;;;6.22;;
52564;SDS011;38460;53.106;7.004;2022-12-05T17:31:34;10.07;;;5.70;;
52564;SDS011;38460;53.106;7.004;2022-12-05T17:34:00;8.82;;;5.90;;
52564;SDS011;38460;53.106;7.004;2022-12-05T17:36:26;10.68;;;6.22;;
52564;SDS011;38460;53.106;7.004;2022-12-05T17:38:52;11.27;;;5.63;;
52564;SDS011;38460;53.106;7.004;2022-12-05T17:41:21;11.00;;;6.18;;
52564;SDS011;38460;53.106;7.004;2022-12-05T17:43:48;10.63;;;5.78;;
52564;SDS011;38460;53.106;7.004;2022-12-05T17:46:16;10.73;;;6.20;;
52564;SDS011;38460;53.106;7.004;2022-12-05T17:48:44;9.75;;;5.65;;
52564;SDS011;38460;53.106;7.004;2022-12-05T17:51:11;12.07;;;6.07;;
52564;SDS011;38460;53.106;7.004;2022-12-05T17:53:38;13.32;;;7.35;;
52564;SDS011;38460;53.106;7.004;2022-12-05T17:56:05;12.80;;;6.63;;
52564;SDS011;38460;53.106;7.004;2022-12-05T17:58:32;12.30;;;7.07;;
52564;SDS011;38460;53.106;7.004;2022-12-05T18:00:58;11.23;;;6.57;;
52564;SDS011;38460;53.106;7.004;2022-12-05T18:03:24;10.20;;;6.50;;